Time;durP1;ratioP1;P1;durP2;ratioP2;P2;SDS_P1;SDS_P2;PMS_P1;PMS_P2;Temp;Humidity;BMP_temperature;BMP_pressure;BME280_temperature;BME280_humidity;BME280_pressure;Samples;Min_cycle;Max_cycle;Signal;HPM_P1;HPM_P2
2023/11/17 00:01:43;;;;;;;9.43;5.07;;;3.00;99.90;;;;;;5048962;28;20539;-63
2023/11/17 00:04:09;;;;;;;6.33;3.90;;;2.90;99.90;;;;;;5049177;28;20551;-62
2023/11/17 00:06:35;;;;;;;4.87;4.33;;;3.00;99.90;;;;;;5041236;28;20191;-62
2023/11/17 00:09:01;;;;;;;4.43;3.90;;;2.90;99.90;;;;;;5049302;28;20247;-62
2023/11/17 00:11:27;;;;;;;6.00;5.40;;;3.00;99.90;;;;;;5038771;28;20462;-62
2023/11/17 00:13:53;;;;;;;4.70;4.20;;;3.00;99.90;;;;;;5038902;28;20461;-65
2023/11/17 00:16:19;;;;;;;6.43;4.53;;;3.10;99.90;;;;;;5046152;28;20461;-63
2023/11/17 00:18:45;;;;;;;5.87;5.23;;;3.10;99.90;;;;;;5052310;28;20417;-62
2023/11/17 00:21:13;;;;;;;5.20;4.67;;;3.20;99.90;;;;;;5038251;28;20431;-62
2023/11/17 00:23:38;;;;;;;6.77;5.30;;;3.20;99.90;;;;;;5044487;28;20187;-62
2023/11/17 00:26:04;;;;;;;5.50;4.07;;;3.30;99.90;;;;;;5052195;28;20769;-62
2023/11/17 00:28:39;;;;;;;5.47;4.50;;;3.30;99.90;;;;;;5044420;28;20194;-63
2023/11/17 00:31:13;;;;;;;6.13;4.80;;;3.40;99.90;;;;;;5023042;28;20536;-63
2023/11/17 00:33:41;;;;;;;4.63;4.30;;;3.50;99.90;;;;;;5040436;28;20417;-63
2023/11/17 00:36:09;;;;;;;4.70;4.10;;;3.50;99.90;;;;;;5052000;28;20511;-62
2023/11/17 00:38:36;;;;;;;4.80;4.07;;;3.60;99.90;;;;;;5052532;28;20422;-63
2023/11/17 00:41:03;;;;;;;5.90;4.33;;;3.70;99.90;;;;;;5041642;28;21028;-64
2023/11/17 00:43:29;;;;;;;4.40;4.00;;;3.60;99.90;;;;;;5040535;28;20418;-64
2023/11/17 00:45:58;;;;;;;4.40;4.00;;;3.70;99.90;;;;;;5034794;28;20469;-63
2023/11/17 00:48:31;;;;;;;4.10;3.73;;;3.60;99.90;;;;;;5046780;28;20932;-63
2023/11/17 00:51:01;;;;;;;4.90;3.97;;;3.60;99.90;;;;;;5041358;28;20497;-63
2023/11/17 00:53:28;;;;;;;6.00;4.73;;;3.70;99.90;;;;;;5032203;28;20458;-62
2023/11/17 00:55:58;;;;;;;4.60;4.17;;;3.70;99.90;;;;;;5038097;28;20422;-62
2023/11/17 00:58:24;;;;;;;5.87;3.40;;;3.70;99.90;;;;;;5037119;28;20433;-63
2023/11/17 01:00:59;;;;;;;7.00;3.80;;;3.70;99.90;;;;;;5044487;28;20411;-63
2023/11/17 01:03:25;;;;;;;4.37;3.97;;;3.80;99.90;;;;;;5035534;28;20482;-63
2023/11/17 01:05:52;;;;;;;5.17;4.07;;;3.80;99.90;;;;;;5048510;28;20421;-63
2023/11/17 01:08:18;;;;;;;5.07;3.50;;;3.80;99.90;;;;;;5042744;28;20426;-62
2023/11/17 01:10:44;;;;;;;4.60;4.00;;;3.80;99.90;;;;;;5037595;28;20411;-62
2023/11/17 01:13:10;;;;;;;3.53;3.23;;;3.80;99.90;;;;;;5051304;28;20441;-63
2023/11/17 01:15:37;;;;;;;3.73;3.17;;;3.80;99.90;;;;;;5042760;28;20518;-62
2023/11/17 01:18:03;;;;;;;6.80;3.50;;;3.90;99.90;;;;;;5033335;28;20509;-62
2023/11/17 01:20:30;;;;;;;5.20;3.27;;;4.00;99.90;;;;;;5041387;28;20507;-63
2023/11/17 01:22:55;;;;;;;4.53;3.20;;;4.00;99.90;;;;;;5040586;28;20496;-63
2023/11/17 01:25:21;;;;;;;4.87;3.60;;;4.00;99.90;;;;;;5038421;28;20469;-62
2023/11/17 01:27:47;;;;;;;3.33;3.07;;;3.90;99.90;;;;;;5039767;28;20267;-60
2023/11/17 01:30:13;;;;;;;3.17;2.87;;;4.00;99.90;;;;;;5043414;28;20273;-63
2023/11/17 01:32:38;;;;;;;3.90;3.00;;;4.00;99.90;;;;;;5044154;28;20231;-63
2023/11/17 01:35:04;;;;;;;4.17;3.77;;;4.10;99.90;;;;;;5050139;28;20828;-63
2023/11/17 01:37:30;;;;;;;3.90;3.20;;;4.10;99.90;;;;;;5040764;28;20183;-64
2023/11/17 01:39:56;;;;;;;3.20;2.90;;;4.20;99.90;;;;;;5050972;28;20985;-63
2023/11/17 01:42:21;;;;;;;8.10;3.53;;;4.10;99.90;;;;;;5046315;28;20523;-63
2023/11/17 01:44:47;;;;;;;3.23;2.93;;;4.10;99.90;;;;;;5039601;28;20263;-63
2023/11/17 01:47:13;;;;;;;3.50;3.20;;;4.10;99.90;;;;;;5051373;28;20179;-64
2023/11/17 01:49:41;;;;;;;3.33;3.00;;;4.20;99.90;;;;;;5051298;28;20425;-62
2023/11/17 01:52:07;;;;;;;3.30;3.00;;;4.20;99.90;;;;;;5040074;28;20449;-63
2023/11/17 01:54:35;;;;;;;2.80;2.60;;;4.20;99.90;;;;;;5031976;28;20441;-63
2023/11/17 01:57:02;;;;;;;2.73;2.50;;;4.20;99.90;;;;;;5035080;28;20184;-63
2023/11/17 01:59:27;;;;;;;3.63;3.33;;;4.10;99.90;;;;;;5028898;28;20422;-62
2023/11/17 02:01:53;;;;;;;5.60;3.30;;;4.20;99.90;;;;;;5047278;28;20464;-63
2023/11/17 02:04:18;;;;;;;3.30;3.10;;;4.10;99.90;;;;;;5039405;28;20278;-62
2023/11/17 02:07:12;;;;;;;3.60;3.30;;;4.20;99.90;;;;;;5039428;28;20167;-64
2023/11/17 02:10:06;;;;;;;3.10;2.90;;;4.10;99.90;;;;;;5033004;28;20272;-62
2023/11/17 02:12:46;;;;;;;4.70;2.63;;;4.20;99.90;;;;;;5025001;28;20635;-63
2023/11/17 02:15:15;;;;;;;3.10;2.80;;;4.10;99.90;;;;;;5028866;28;21031;-62
2023/11/17 02:17:49;;;;;;;4.60;3.60;;;4.00;99.90;;;;;;5030050;28;20437;-63
2023/11/17 02:20:20;;;;;;;3.03;2.80;;;4.20;99.90;;;;;;5030716;28;20422;-63
2023/11/17 02:22:51;;;;;;;3.23;2.80;;;4.20;99.90;;;;;;5033787;28;20858;-63
2023/11/17 02:25:34;;;;;;;3.73;3.10;;;4.10;99.90;;;;;;5038844;28;20419;-63
2023/11/17 02:28:21;;;;;;;2.90;2.67;;;4.10;99.90;;;;;;5040667;28;20413;-62
2023/11/17 02:30:55;;;;;;;3.90;3.00;;;4.10;99.90;;;;;;5034556;28;20544;-63
2023/11/17 02:33:32;;;;;;;3.43;2.83;;;4.20;99.90;;;;;;5029224;28;20453;-63
2023/11/17 02:36:03;;;;;;;2.77;2.50;;;4.20;99.90;;;;;;5036088;28;20470;-62
2023/11/17 02:38:29;;;;;;;3.77;3.37;;;4.20;99.90;;;;;;5045168;28;20429;-63
2023/11/17 02:40:55;;;;;;;4.40;3.43;;;4.10;99.90;;;;;;5038878;28;20778;-63
2023/11/17 02:43:23;;;;;;;3.60;3.27;;;4.20;99.90;;;;;;5041556;28;20214;-62
2023/11/17 02:45:52;;;;;;;3.53;3.20;;;4.20;99.90;;;;;;5050027;28;20439;-63
2023/11/17 02:48:21;;;;;;;4.10;3.67;;;4.20;99.90;;;;;;5020499;28;21216;-63
2023/11/17 02:51:17;;;;;;;4.20;3.43;;;4.20;99.90;;;;;;5033833;28;20413;-63
2023/11/17 02:53:49;;;;;;;6.23;4.03;;;4.10;99.90;;;;;;5041050;28;20480;-63
2023/11/17 02:56:19;;;;;;;6.37;3.80;;;4.10;99.90;;;;;;5041534;28;20413;-62
2023/11/17 02:58:47;;;;;;;7.90;5.57;;;4.20;99.90;;;;;;5032063;28;20529;-63
2023/11/17 03:01:18;;;;;;;7.23;5.77;;;4.10;99.90;;;;;;5039314;28;20512;-62
2023/11/17 03:03:46;;;;;;;5.30;3.67;;;4.20;99.90;;;;;;5043279;28;20426;-62
2023/11/17 03:06:14;;;;;;;6.80;4.00;;;4.20;99.90;;;;;;5029748;28;20434;-62
2023/11/17 03:08:41;;;;;;;5.13;4.60;;;4.10;99.90;;;;;;5032097;28;20414;-63
2023/11/17 03:11:06;;;;;;;7.23;5.10;;;4.30;99.90;;;;;;5027539;28;20511;-63
2023/11/17 03:13:32;;;;;;;4.23;3.43;;;4.20;99.90;;;;;;5035049;28;20454;-63
2023/11/17 03:15:58;;;;;;;4.87;3.70;;;4.10;99.90;;;;;;5031572;28;20429;-63
2023/11/17 03:18:26;;;;;;;6.83;5.70;;;4.10;99.90;;;;;;5049840;28;20197;-63
2023/11/17 03:20:56;;;;;;;5.30;4.80;;;4.20;99.90;;;;;;5049933;28;20479;-63
2023/11/17 03:23:22;;;;;;;4.80;4.33;;;4.10;99.90;;;;;;5046479;28;20456;-63
2023/11/17 03:25:52;;;;;;;7.40;4.87;;;4.10;99.90;;;;;;5049616;28;20444;-64
2023/11/17 03:28:18;;;;;;;7.40;5.13;;;4.00;99.90;;;;;;5044574;28;20442;-63
2023/11/17 03:30:44;;;;;;;4.27;3.90;;;4.10;99.90;;;;;;5049638;28;20421;-63
2023/11/17 03:33:11;;;;;;;4.40;4.00;;;4.10;99.90;;;;;;5040930;28;20217;-62
2023/11/17 03:35:40;;;;;;;6.07;4.43;;;4.00;99.90;;;;;;5049693;28;20187;-63
2023/11/17 03:38:13;;;;;;;6.10;5.30;;;3.90;99.90;;;;;;5041153;28;20460;-62
2023/11/17 03:40:45;;;;;;;5.77;4.40;;;3.80;99.90;;;;;;5041726;28;20422;-62
2023/11/17 03:43:13;;;;;;;7.37;4.73;;;3.70;99.90;;;;;;5041012;28;21057;-62
2023/11/17 03:45:43;;;;;;;5.70;4.40;;;3.70;99.90;;;;;;5028237;28;20446;-62
2023/11/17 03:48:08;;;;;;;4.80;4.30;;;3.70;99.90;;;;;;5038330;28;20426;-62
2023/11/17 03:50:35;;;;;;;9.13;5.97;;;3.80;99.90;;;;;;5053450;28;20435;-61
2023/11/17 03:53:00;;;;;;;7.97;5.70;;;3.80;99.90;;;;;;5034003;28;20214;-61
2023/11/17 03:55:27;;;;;;;6.47;5.47;;;3.90;99.90;;;;;;5053154;28;20429;-61
2023/11/17 03:57:53;;;;;;;6.37;5.70;;;3.90;99.90;;;;;;5045595;28;20194;-62
2023/11/17 04:00:22;;;;;;;6.13;5.53;;;3.80;99.90;;;;;;5036961;28;20533;-62
2023/11/17 04:02:52;;;;;;;5.97;5.03;;;3.80;99.90;;;;;;5048352;28;20537;-61
2023/11/17 04:05:20;;;;;;;7.67;5.23;;;3.90;99.90;;;;;;5041267;28;20422;-62
2023/11/17 04:07:48;;;;;;;7.27;5.70;;;3.90;99.90;;;;;;5040042;28;20429;-62
2023/11/17 04:10:18;;;;;;;6.97;6.23;;;3.70;99.90;;;;;;5042490;28;20420;-63
2023/11/17 04:12:45;;;;;;;6.53;4.93;;;3.70;99.90;;;;;;5040077;28;20835;-64
2023/11/17 04:15:11;;;;;;;6.47;5.77;;;3.70;99.90;;;;;;5045272;28;20437;-63
2023/11/17 04:17:36;;;;;;;9.63;6.37;;;3.80;99.90;;;;;;5035909;28;20928;-63
2023/11/17 04:20:02;;;;;;;7.40;5.53;;;3.90;99.90;;;;;;5042119;28;20194;-64
2023/11/17 04:22:28;;;;;;;6.83;5.67;;;3.90;99.90;;;;;;5035453;28;20302;-63
2023/11/17 04:24:53;;;;;;;7.33;5.77;;;3.80;99.90;;;;;;5053072;28;20749;-62
2023/11/17 04:27:19;;;;;;;7.80;6.23;;;3.80;99.90;;;;;;5049151;28;20229;-63
2023/11/17 04:29:45;;;;;;;7.03;6.20;;;3.90;99.90;;;;;;5047656;28;20179;-63
2023/11/17 04:32:10;;;;;;;8.53;6.73;;;3.90;99.90;;;;;;5042149;28;20276;-62
2023/11/17 04:34:36;;;;;;;6.23;5.17;;;4.00;99.90;;;;;;5039759;28;20918;-64
2023/11/17 04:37:04;;;;;;;7.07;6.37;;;3.90;99.90;;;;;;5052356;28;20206;-63
2023/11/17 04:39:30;;;;;;;6.30;5.70;;;3.90;99.90;;;;;;5048139;28;20191;-62
2023/11/17 04:41:56;;;;;;;8.17;5.80;;;3.80;99.90;;;;;;5042338;28;20997;-62
2023/11/17 04:44:21;;;;;;;7.13;6.43;;;3.90;99.90;;;;;;5052161;28;20509;-62
2023/11/17 04:46:48;;;;;;;5.70;5.10;;;3.90;99.90;;;;;;5052017;28;20513;-61
2023/11/17 04:49:14;;;;;;;6.90;4.80;;;4.00;99.90;;;;;;5034871;28;20197;-61
2023/11/17 04:51:46;;;;;;;5.70;5.03;;;4.00;99.90;;;;;;5052082;28;20437;-62
2023/11/17 04:54:14;;;;;;;6.37;5.30;;;4.00;99.90;;;;;;5044054;28;20893;-63
2023/11/17 04:56:41;;;;;;;6.67;5.40;;;3.90;99.90;;;;;;5045843;28;20522;-62
2023/11/17 04:59:07;;;;;;;5.20;4.70;;;4.00;99.90;;;;;;5048565;28;20882;-64
2023/11/17 05:01:34;;;;;;;6.57;5.70;;;4.00;99.90;;;;;;5029602;28;20476;-62
2023/11/17 05:04:00;;;;;;;6.03;5.10;;;4.00;99.90;;;;;;5048736;28;20973;-61
2023/11/17 05:06:26;;;;;;;5.90;5.27;;;3.90;99.90;;;;;;5048327;28;20483;-62
2023/11/17 05:08:53;;;;;;;5.07;4.60;;;3.90;99.90;;;;;;5040158;28;20426;-63
2023/11/17 05:11:21;;;;;;;6.90;5.00;;;3.90;99.90;;;;;;5050540;28;20487;-62
2023/11/17 05:13:46;;;;;;;8.43;5.30;;;3.90;99.90;;;;;;5032885;28;20206;-63
2023/11/17 05:16:14;;;;;;;7.47;5.30;;;3.90;99.90;;;;;;5028169;28;20438;-63
2023/11/17 05:18:40;;;;;;;5.60;5.10;;;3.80;99.90;;;;;;5040240;28;20239;-61
2023/11/17 05:21:06;;;;;;;6.27;5.00;;;3.90;99.90;;;;;;5051276;28;20436;-62
2023/11/17 05:23:34;;;;;;;6.20;5.07;;;3.80;99.90;;;;;;5046920;28;20435;-62
2023/11/17 05:26:00;;;;;;;5.93;5.40;;;3.90;99.90;;;;;;5051553;28;20422;-63
2023/11/17 05:28:27;;;;;;;4.93;4.43;;;3.80;99.90;;;;;;5043095;28;20421;-62
2023/11/17 05:30:55;;;;;;;5.47;4.97;;;4.00;99.90;;;;;;5051638;28;20512;-63
2023/11/17 05:33:21;;;;;;;6.83;5.00;;;4.00;99.90;;;;;;5038853;28;20563;-63
2023/11/17 05:35:47;;;;;;;5.73;4.60;;;4.00;99.90;;;;;;5045819;28;20521;-63
2023/11/17 05:38:13;;;;;;;6.53;5.97;;;3.90;99.90;;;;;;5051149;28;20461;-63
2023/11/17 05:40:40;;;;;;;5.60;4.87;;;3.90;99.90;;;;;;5051237;28;20425;-63
2023/11/17 05:43:06;;;;;;;6.17;5.00;;;3.90;99.90;;;;;;5042232;28;20829;-62
2023/11/17 05:45:32;;;;;;;6.07;5.57;;;3.70;99.90;;;;;;5051222;28;20709;-63
2023/11/17 05:47:57;;;;;;;5.30;4.80;;;3.80;99.90;;;;;;5033924;28;20440;-63
2023/11/17 05:50:23;;;;;;;4.73;3.77;;;3.80;99.90;;;;;;5034338;28;20422;-62
2023/11/17 05:52:49;;;;;;;5.07;4.57;;;3.80;99.90;;;;;;5033871;28;20601;-62
2023/11/17 05:55:17;;;;;;;9.70;4.90;;;3.90;99.90;;;;;;5041010;28;20183;-62
2023/11/17 05:57:44;;;;;;;6.33;3.67;;;3.90;99.90;;;;;;5045167;28;20422;-63
2023/11/17 06:00:13;;;;;;;4.03;3.70;;;3.90;99.90;;;;;;5048424;28;20451;-62
2023/11/17 06:02:40;;;;;;;7.83;5.20;;;3.80;99.90;;;;;;5034304;28;20470;-61
2023/11/17 06:05:08;;;;;;;6.97;4.40;;;3.80;99.90;;;;;;5047738;28;20446;-62
2023/11/17 06:07:34;;;;;;;4.83;4.37;;;3.90;99.90;;;;;;5049896;28;20425;-62
2023/11/17 06:10:00;;;;;;;4.73;4.23;;;3.90;99.90;;;;;;5042620;28;20424;-62
2023/11/17 06:12:27;;;;;;;7.00;4.40;;;4.00;99.90;;;;;;5039335;28;20541;-62
2023/11/17 06:14:52;;;;;;;4.47;3.90;;;4.00;99.90;;;;;;5039138;28;20219;-63
2023/11/17 06:17:19;;;;;;;6.07;3.90;;;4.00;99.90;;;;;;5043174;28;20942;-63
2023/11/17 06:19:44;;;;;;;7.13;4.60;;;3.90;99.90;;;;;;5038472;28;20269;-63
2023/11/17 06:22:11;;;;;;;6.10;3.80;;;3.90;99.90;;;;;;5033536;28;20556;-63
2023/11/17 06:24:36;;;;;;;6.10;4.03;;;3.90;99.90;;;;;;5050284;28;20193;-63
2023/11/17 06:27:02;;;;;;;3.87;3.57;;;3.90;99.90;;;;;;5050384;28;20414;-63
2023/11/17 06:29:28;;;;;;;6.27;4.53;;;3.80;99.90;;;;;;5050233;28;20758;-62
2023/11/17 06:31:53;;;;;;;5.53;3.83;;;3.80;99.90;;;;;;5050212;28;20506;-63
2023/11/17 06:34:19;;;;;;;4.90;3.63;;;3.90;99.90;;;;;;5046263;28;20244;-61
2023/11/17 06:36:45;;;;;;;4.67;4.20;;;3.80;99.90;;;;;;5036019;28;20190;-62
2023/11/17 06:39:14;;;;;;;5.33;4.30;;;3.80;99.90;;;;;;5040946;28;20669;-61
2023/11/17 06:41:47;;;;;;;7.43;5.20;;;3.80;99.90;;;;;;5038881;28;20481;-61
2023/11/17 06:44:13;;;;;;;4.53;3.80;;;3.80;99.90;;;;;;5027785;28;20464;-61
2023/11/17 06:46:41;;;;;;;5.60;4.67;;;3.80;99.90;;;;;;5025515;28;20805;-62
2023/11/17 06:49:10;;;;;;;6.53;5.37;;;3.90;99.90;;;;;;5044923;28;20805;-63
2023/11/17 06:51:37;;;;;;;6.17;4.40;;;4.00;99.90;;;;;;5032516;28;21016;-62
2023/11/17 06:54:08;;;;;;;7.50;5.00;;;4.00;99.90;;;;;;5033855;28;20453;-63
2023/11/17 06:56:34;;;;;;;12.27;5.60;;;3.90;99.90;;;;;;5022654;28;20430;-63
2023/11/17 06:59:00;;;;;;;4.83;4.37;;;3.90;99.90;;;;;;5045913;28;20428;-62
2023/11/17 07:01:26;;;;;;;5.20;4.43;;;4.00;99.90;;;;;;5033091;28;20361;-62
2023/11/17 07:03:52;;;;;;;6.83;4.93;;;4.00;99.90;;;;;;5029687;28;20441;-63
2023/11/17 07:06:19;;;;;;;5.43;4.77;;;4.00;99.90;;;;;;5042291;28;20183;-63
2023/11/17 07:08:45;;;;;;;13.27;4.60;;;4.00;99.90;;;;;;5050387;28;20900;-63
2023/11/17 07:11:11;;;;;;;9.20;5.70;;;4.10;99.90;;;;;;5041208;28;20512;-62
2023/11/17 07:13:40;;;;;;;14.17;4.57;;;4.00;99.90;;;;;;5042517;28;20186;-61
2023/11/17 07:16:07;;;;;;;9.60;5.80;;;4.10;99.90;;;;;;5050159;28;20928;-61
2023/11/17 07:18:33;;;;;;;10.97;5.40;;;4.10;99.90;;;;;;5038369;28;21322;-62
2023/11/17 07:20:58;;;;;;;7.30;4.80;;;4.20;99.90;;;;;;5053968;28;20559;-61
2023/11/17 07:23:24;;;;;;;7.80;6.70;;;4.30;99.90;;;;;;5053682;28;20214;-61
2023/11/17 07:25:50;;;;;;;5.70;4.40;;;4.20;99.90;;;;;;5054060;28;20272;-62
2023/11/17 07:28:15;;;;;;;6.10;4.87;;;4.30;99.90;;;;;;5052112;28;20186;-62
2023/11/17 07:30:42;;;;;;;10.30;6.50;;;4.30;99.90;;;;;;5045451;28;20202;-63
2023/11/17 07:33:09;;;;;;;5.67;4.77;;;4.30;99.90;;;;;;5045409;28;20731;-63
2023/11/17 07:35:35;;;;;;;9.97;6.73;;;4.30;99.90;;;;;;5035142;28;20802;-62
2023/11/17 07:38:05;;;;;;;6.60;5.50;;;4.40;99.90;;;;;;5050519;28;20493;-62
2023/11/17 07:40:31;;;;;;;8.87;6.70;;;4.30;99.90;;;;;;5045630;28;20432;-67
2023/11/17 07:42:56;;;;;;;5.33;4.87;;;4.30;99.90;;;;;;5046869;28;20967;-65
2023/11/17 07:45:22;;;;;;;5.50;4.90;;;4.30;99.90;;;;;;5051481;28;20218;-64
2023/11/17 07:47:48;;;;;;;6.93;5.70;;;4.40;99.90;;;;;;5048183;28;20258;-62
2023/11/17 07:50:14;;;;;;;10.43;5.57;;;4.30;99.90;;;;;;5041467;28;20297;-63
2023/11/17 07:52:44;;;;;;;9.20;5.33;;;4.30;99.90;;;;;;5039246;28;20457;-63
2023/11/17 07:55:13;;;;;;;6.33;5.37;;;4.30;99.90;;;;;;5041532;28;20446;-64
2023/11/17 07:57:40;;;;;;;8.60;6.20;;;4.40;99.90;;;;;;5045270;28;20875;-62
2023/11/17 08:00:17;;;;;;;6.20;5.60;;;4.40;99.90;;;;;;5045017;28;20429;-69
2023/11/17 08:02:43;;;;;;;9.60;5.30;;;4.30;99.90;;;;;;5032682;28;21025;-62
2023/11/17 08:05:10;;;;;;;7.40;5.43;;;4.30;99.90;;;;;;5032276;28;20518;-63
2023/11/17 08:07:36;;;;;;;6.33;4.80;;;4.30;99.90;;;;;;5025182;28;20880;-63
2023/11/17 08:10:06;;;;;;;5.70;5.20;;;4.30;99.90;;;;;;5033351;28;20414;-63
2023/11/17 08:12:32;;;;;;;7.93;6.20;;;4.30;99.90;;;;;;5031657;28;20511;-63
2023/11/17 08:14:58;;;;;;;6.80;5.57;;;4.40;99.90;;;;;;5044497;28;20432;-63
2023/11/17 08:17:24;;;;;;;6.83;5.30;;;4.40;99.90;;;;;;5050817;28;20425;-63
2023/11/17 08:19:50;;;;;;;5.10;4.60;;;4.40;99.90;;;;;;5045112;28;20518;-62
2023/11/17 08:22:16;;;;;;;5.70;4.93;;;4.40;99.90;;;;;;5038660;28;20475;-62
2023/11/17 08:24:42;;;;;;;5.80;5.10;;;4.40;99.90;;;;;;5044484;28;20202;-63
2023/11/17 08:27:08;;;;;;;5.20;4.70;;;4.50;99.90;;;;;;5052694;28;20422;-63
2023/11/17 08:29:33;;;;;;;4.90;4.30;;;4.50;99.90;;;;;;5044223;28;20707;-63
2023/11/17 08:31:59;;;;;;;7.00;5.07;;;4.60;99.90;;;;;;5041760;28;20202;-63
2023/11/17 08:34:25;;;;;;;6.37;4.50;;;4.50;99.90;;;;;;5044601;28;20274;-63
2023/11/17 08:36:51;;;;;;;5.67;5.07;;;4.60;99.90;;;;;;5039614;28;20187;-63
2023/11/17 08:39:25;;;;;;;5.97;5.37;;;4.50;99.90;;;;;;5044875;28;20600;-62
2023/11/17 08:41:54;;;;;;;5.40;4.47;;;4.60;99.90;;;;;;5052196;28;20214;-63
2023/11/17 08:44:20;;;;;;;4.77;4.03;;;4.60;99.90;;;;;;5042834;28;20444;-62
2023/11/17 08:46:46;;;;;;;5.23;4.17;;;4.70;99.90;;;;;;5037197;28;20414;-62
2023/11/17 08:49:12;;;;;;;4.13;3.73;;;4.70;99.90;;;;;;5036126;28;20430;-62
2023/11/17 08:51:41;;;;;;;4.50;4.00;;;4.90;99.90;;;;;;5028110;28;20229;-61
2023/11/17 08:54:07;;;;;;;4.87;4.47;;;4.90;99.90;;;;;;5052749;28;20464;-62
2023/11/17 08:56:35;;;;;;;4.80;4.33;;;4.60;99.90;;;;;;5035238;28;20477;-61
2023/11/17 08:59:05;;;;;;;5.27;4.60;;;4.60;99.90;;;;;;5039404;28;20183;-60
2023/11/17 09:01:32;;;;;;;5.40;4.27;;;4.70;99.90;;;;;;5041862;28;20442;-61
2023/11/17 09:03:58;;;;;;;4.77;4.37;;;4.70;99.90;;;;;;5047532;28;20500;-61
2023/11/17 09:06:24;;;;;;;4.67;4.20;;;4.70;99.90;;;;;;5047903;28;20839;-62
2023/11/17 09:08:50;;;;;;;4.43;3.90;;;4.70;99.90;;;;;;5052088;28;20258;-62
2023/11/17 09:11:16;;;;;;;6.83;4.23;;;4.60;99.90;;;;;;5034823;28;20508;-63
2023/11/17 09:13:43;;;;;;;3.77;3.37;;;4.80;99.90;;;;;;5044146;28;20429;-65
2023/11/17 09:16:09;;;;;;;5.47;4.50;;;4.80;99.90;;;;;;5052073;28;20645;-62
2023/11/17 09:18:35;;;;;;;4.23;3.83;;;4.60;99.90;;;;;;5051098;28;20804;-62
2023/11/17 09:21:07;;;;;;;7.10;3.90;;;4.70;99.90;;;;;;5045278;28;20954;-62
2023/11/17 09:23:36;;;;;;;5.63;4.37;;;4.70;99.90;;;;;;5034205;28;20465;-66
2023/11/17 09:26:03;;;;;;;3.80;3.50;;;4.90;99.90;;;;;;5043207;28;20437;-61
2023/11/17 09:28:29;;;;;;;5.93;4.90;;;4.80;99.90;;;;;;5043182;28;20453;-61
2023/11/17 09:30:56;;;;;;;4.40;3.40;;;4.70;99.90;;;;;;5043442;28;20417;-61
2023/11/17 09:33:22;;;;;;;7.80;3.47;;;4.80;99.90;;;;;;5033958;28;20943;-62
2023/11/17 09:35:48;;;;;;;4.50;3.20;;;4.80;99.90;;;;;;5038547;28;20434;-61
2023/11/17 09:38:16;;;;;;;8.67;4.20;;;4.80;99.90;;;;;;5030915;28;20422;-59
2023/11/17 09:40:42;;;;;;;4.97;3.80;;;4.80;99.90;;;;;;5036116;28;20438;-62
2023/11/17 09:43:09;;;;;;;7.30;3.37;;;4.90;99.90;;;;;;5038332;28;20476;-62
2023/11/17 09:45:37;;;;;;;4.30;3.63;;;4.80;99.90;;;;;;5049748;28;20483;-59
2023/11/17 09:48:06;;;;;;;6.17;3.87;;;4.80;99.90;;;;;;5043182;28;20480;-62
2023/11/17 09:50:32;;;;;;;5.17;4.50;;;5.00;99.90;;;;;;5032515;28;20427;-60
2023/11/17 09:52:59;;;;;;;4.43;3.90;;;4.90;99.90;;;;;;5040403;28;20997;-63
2023/11/17 09:55:30;;;;;;;4.87;4.37;;;4.90;99.90;;;;;;5048777;28;20435;-61
2023/11/17 09:58:03;;;;;;;5.63;4.27;;;4.80;99.90;;;;;;5051008;28;20430;-61
2023/11/17 10:00:29;;;;;;;3.97;3.63;;;4.80;99.90;;;;;;5050555;28;20433;-62
2023/11/17 10:02:57;;;;;;;5.90;4.80;;;4.90;99.90;;;;;;5045289;28;20534;-62
2023/11/17 10:05:24;;;;;;;5.97;4.00;;;4.80;99.90;;;;;;5031473;28;20438;-62
2023/11/17 10:07:55;;;;;;;3.80;3.20;;;4.90;99.90;;;;;;5032227;28;20419;-62
2023/11/17 10:10:22;;;;;;;4.80;4.30;;;4.80;99.90;;;;;;5047733;28;20413;-62
2023/11/17 10:12:49;;;;;;;4.23;3.77;;;4.90;99.90;;;;;;5050647;28;21227;-61
2023/11/17 10:15:23;;;;;;;6.23;5.40;;;4.80;99.90;;;;;;5050646;28;20413;-62
2023/11/17 10:17:50;;;;;;;5.83;4.50;;;4.90;99.90;;;;;;5050823;28;20512;-63
2023/11/17 10:20:17;;;;;;;6.57;4.23;;;4.90;99.90;;;;;;5042257;28;20468;-63
2023/11/17 10:22:49;;;;;;;4.73;4.33;;;5.10;99.90;;;;;;5034027;28;20464;-62
2023/11/17 10:25:18;;;;;;;4.50;4.10;;;5.10;99.90;;;;;;5042443;28;20516;-62
2023/11/17 10:27:51;;;;;;;5.30;4.80;;;5.00;99.90;;;;;;5050834;28;20410;-62
2023/11/17 10:30:25;;;;;;;4.67;4.13;;;5.20;99.90;;;;;;5042290;28;20425;-63
2023/11/17 10:33:24;;;;;;;10.63;3.87;;;5.40;99.90;;;;;;5031639;28;20453;-63
2023/11/17 10:36:00;;;;;;;5.83;3.80;;;5.30;99.90;;;;;;5031916;28;20432;-62
2023/11/17 10:38:26;;;;;;;3.67;3.37;;;5.40;99.90;;;;;;5039835;28;20537;-62
2023/11/17 10:40:52;;;;;;;5.50;3.87;;;5.40;99.90;;;;;;5039092;28;20544;-64
2023/11/17 10:43:18;;;;;;;4.60;4.20;;;5.40;99.90;;;;;;5050334;28;20563;-62
2023/11/17 10:45:44;;;;;;;3.67;2.90;;;5.30;99.90;;;;;;5050589;28;20174;-62
2023/11/17 10:48:13;;;;;;;3.40;3.10;;;5.60;99.90;;;;;;5033121;28;20431;-62
2023/11/17 10:50:42;;;;;;;4.23;3.30;;;5.50;99.90;;;;;;5040539;28;21035;-60
2023/11/17 10:53:21;;;;;;;3.77;3.30;;;5.30;99.90;;;;;;5045296;28;20480;-62
2023/11/17 10:55:48;;;;;;;4.07;3.67;;;5.30;99.90;;;;;;5030636;28;20465;-61
2023/11/17 10:58:15;;;;;;;3.93;3.57;;;5.30;99.90;;;;;;5037294;28;20456;-62
2023/11/17 11:00:51;;;;;;;4.07;3.50;;;5.40;99.90;;;;;;5035357;28;20485;-61
2023/11/17 11:03:18;;;;;;;3.70;3.40;;;5.30;99.90;;;;;;5020059;28;20476;-61
2023/11/17 11:05:46;;;;;;;4.00;3.50;;;5.40;99.90;;;;;;5047440;28;20464;-62
2023/11/17 11:08:17;;;;;;;3.80;3.40;;;5.30;99.90;;;;;;5034780;28;20502;-62
2023/11/17 11:10:54;;;;;;;3.83;3.20;;;5.30;99.90;;;;;;5033834;28;20813;-62
2023/11/17 11:13:28;;;;;;;3.77;3.23;;;5.30;99.90;;;;;;5032867;28;20526;-62
2023/11/17 11:16:10;;;;;;;5.33;3.43;;;5.40;99.90;;;;;;5022769;28;20423;-64
2023/11/17 11:18:43;;;;;;;3.40;2.90;;;5.50;99.90;;;;;;5030713;28;20501;-63
2023/11/17 11:21:09;;;;;;;3.80;3.40;;;5.40;99.90;;;;;;5031012;28;20422;-62
2023/11/17 11:23:36;;;;;;;4.57;3.17;;;5.50;99.90;;;;;;5033880;28;20462;-63
2023/11/17 11:26:04;;;;;;;4.07;3.40;;;5.50;99.90;;;;;;5034114;28;20415;-64
2023/11/17 11:28:31;;;;;;;2.70;2.50;;;5.50;99.90;;;;;;5033481;28;20427;-63
2023/11/17 11:31:01;;;;;;;3.87;3.57;;;5.50;99.90;;;;;;5030123;28;20418;-63
2023/11/17 11:33:30;;;;;;;3.07;2.87;;;5.50;99.90;;;;;;5029628;28;20925;-63
2023/11/17 11:36:00;;;;;;;2.87;2.67;;;5.70;99.90;;;;;;5029295;28;20418;-63
2023/11/17 11:38:27;;;;;;;3.37;3.07;;;5.80;99.90;;;;;;5031389;28;20445;-62
2023/11/17 11:40:53;;;;;;;4.73;3.07;;;5.60;99.90;;;;;;5028223;28;20525;-62
2023/11/17 11:43:19;;;;;;;5.13;3.07;;;5.50;99.90;;;;;;5031602;28;20548;-62
2023/11/17 11:45:46;;;;;;;3.20;2.90;;;5.60;99.90;;;;;;5039330;28;20414;-62
2023/11/17 11:48:14;;;;;;;3.20;2.70;;;5.60;99.90;;;;;;5033562;28;20480;-63
2023/11/17 11:50:42;;;;;;;2.90;2.40;;;5.60;99.90;;;;;;5043151;28;20504;-63
2023/11/17 11:53:16;;;;;;;5.37;3.13;;;5.60;99.90;;;;;;5018658;28;20493;-61
2023/11/17 11:55:42;;;;;;;5.00;3.13;;;5.70;99.90;;;;;;5029113;28;20430;-63
2023/11/17 11:58:08;;;;;;;4.63;3.50;;;5.70;99.90;;;;;;5015729;28;20480;-66
2023/11/17 12:00:35;;;;;;;4.10;3.30;;;5.70;99.90;;;;;;5028614;28;20758;-63
2023/11/17 12:03:04;;;;;;;4.63;3.70;;;5.80;99.90;;;;;;5034495;28;20548;-62
2023/11/17 12:05:33;;;;;;;2.70;2.50;;;5.90;99.90;;;;;;5030135;28;20976;-61
2023/11/17 12:08:03;;;;;;;3.10;2.80;;;5.90;99.90;;;;;;5000619;28;20455;-66
2023/11/17 12:10:42;;;;;;;3.27;2.97;;;5.80;99.90;;;;;;5032270;28;20912;-66
2023/11/17 12:13:41;;;;;;;3.60;3.00;;;5.80;99.90;;;;;;5031702;28;20477;-67
2023/11/17 12:16:11;;;;;;;6.10;3.17;;;5.80;99.90;;;;;;5031207;28;20936;-66
2023/11/17 12:18:40;;;;;;;3.20;2.90;;;5.70;99.90;;;;;;5033181;28;20480;-63
2023/11/17 12:21:16;;;;;;;4.27;3.87;;;5.70;99.90;;;;;;5038542;28;20430;-63
2023/11/17 12:24:15;;;;;;;4.30;4.00;;;5.80;99.90;;;;;;5038622;28;20557;-62
2023/11/17 12:26:42;;;;;;;4.30;3.47;;;5.90;99.90;;;;;;5038291;28;20442;-62
2023/11/17 12:29:11;;;;;;;3.57;3.27;;;5.80;99.90;;;;;;5042991;28;20441;-63
2023/11/17 12:31:38;;;;;;;4.27;3.87;;;5.70;99.90;;;;;;5037293;28;20464;-63
2023/11/17 12:34:05;;;;;;;3.43;3.03;;;5.60;99.90;;;;;;5035525;28;20458;-63
2023/11/17 12:36:31;;;;;;;3.40;3.10;;;5.60;99.90;;;;;;5038157;28;20461;-63
2023/11/17 12:38:59;;;;;;;3.60;3.20;;;5.60;99.90;;;;;;5030274;28;20442;-63
2023/11/17 12:41:26;;;;;;;4.03;3.63;;;5.70;99.90;;;;;;5026696;28;21539;-61
2023/11/17 12:43:56;;;;;;;4.90;4.00;;;5.60;99.90;;;;;;5019790;28;20459;-63
2023/11/17 12:46:27;;;;;;;3.83;3.47;;;5.80;99.90;;;;;;5039760;28;20485;-62
2023/11/17 12:48:53;;;;;;;4.20;3.47;;;5.90;99.90;;;;;;5032503;28;20425;-63
2023/11/17 12:51:29;;;;;;;4.20;3.80;;;5.70;99.90;;;;;;5044333;28;20439;-63
2023/11/17 12:53:57;;;;;;;5.97;3.10;;;5.70;99.90;;;;;;5039938;28;20495;-63
2023/11/17 12:56:23;;;;;;;3.80;3.40;;;5.70;99.90;;;;;;5048153;28;20422;-63
2023/11/17 12:58:50;;;;;;;3.20;2.90;;;5.80;99.90;;;;;;5046237;28;20525;-63
2023/11/17 13:01:18;;;;;;;3.67;3.33;;;5.80;99.90;;;;;;5030780;28;20442;-63
2023/11/17 13:03:46;;;;;;;3.27;2.97;;;5.80;99.90;;;;;;5031579;28;20541;-63